Fire Island Pines, New York
Current Conditions -  °F | °C
As of 7:56 AM on Saturday 25 Oct 2014 (Local Time) from KISP Reporting Station
Few Clouds Few Clouds  
Wind Chill: 44°   Ceiling: Unl
Heat Index: 46°   Visibility: 10mi
Dew Point: 43°   Wind: 5mph
Humidity: 89%   Direction: 270°W
Pressure: 29.83"   Gusts: NA
Location:  40.7472°N, 73.0832°W
Report Text: KISP 251156Z 27004KT 10SM FEW260 08/06 A2983 RMK AO2 SLP103 70005 T00780061 10106 20056 51004
Loading
Personal Weather Stations






























Interactive Weather Map
Tropical Storm Tracking
New forecast layout! Learn more

10-Day Weather Forecast

Advertisements
Track Severe Weather on mobile